Pagrindinis puslapis
METAR-TAF:

METAR-TAF

Oro uostai :

Bettles, Aliaska, Jungtinės Amerikos Valstijos

platuma: 66-55N, ilguma: 151-31W, Aukštis: 196 m

Dabartinis oras

Ataskaita buvo paskelbta 1 valandą ir 11 minutes, ne 01:53 UTC
Ramus vėjas
Temperatūra -23°C
Drėgmė 58%
Slėgis 1020 hPa
Matomumas: 16.1 km
Giedras dangus

METAR: PABT 290153Z 00000KT 10SM CLR M23/M29 A3013 RMK AO2 SLP234 T12331289

Laikas: 18:04 (03:04 UTC)

Prognozė

Ataskaita buvo paskelbta 3 valandos ir 32 minutes, ne 23:32 UTC
Prognozė galioja nuo 29 metu 00 UTC su 29 metu 24 UTC
Vėjas 5 kt nuo kintamojo kryptimis
Matomumas: 10 km
Giedras dangus

TAF: PABT 282332Z 2900/2924 VRB05KT P6SM SKC

Orai ataskaitas ir orų prognozės (METAR, TAF).

turimą stotys yra geltonos ir raudonos taškus žemėlapyje.

Perkelti pele per norėdami pamatyti stoties vardą.

Tada spustelėkite, norėdami matyti oro stebėjimo ir prognozės.

Norėdami pakeisti žemėlapį: spustelėkite ant žalios mygtukų su juodo kryžiaus žemyn,; žalią mygtuką su brūkšneliu, jei norite nutolinti; arba žalių rodyklių gretimoms žemėlapius.


METAR-TAF: